sensor_id;sensor_type;location;lat;lon;timestamp;temperature;humidity
11963;DHT22;62678;52.130;5.584;2022-09-06T00:00:54;21.10;99.90
11963;DHT22;62678;52.130;5.584;2022-09-06T00:03:22;21.10;99.90
11963;DHT22;62678;52.130;5.584;2022-09-06T00:05:50;21.00;99.90
11963;DHT22;62678;52.130;5.584;2022-09-06T00:08:17;21.00;99.90
11963;DHT22;62678;52.130;5.584;2022-09-06T00:10:44;21.00;99.90
11963;DHT22;62678;52.130;5.584;2022-09-06T00:13:12;21.00;99.90
11963;DHT22;62678;52.130;5.584;2022-09-06T00:15:39;20.90;99.90
11963;DHT22;62678;52.130;5.584;2022-09-06T00:18:06;20.80;99.90
11963;DHT22;62678;52.130;5.584;2022-09-06T00:20:34;20.80;99.90
11963;DHT22;62678;52.130;5.584;2022-09-06T00:23:07;20.70;99.90
11963;DHT22;62678;52.130;5.584;2022-09-06T00:25:34;20.70;99.90
11963;DHT22;62678;52.130;5.584;2022-09-06T00:28:04;20.70;99.90
11963;DHT22;62678;52.130;5.584;2022-09-06T00:30:32;20.70;99.90
11963;DHT22;62678;52.130;5.584;2022-09-06T00:33:00;20.70;99.90
11963;DHT22;62678;52.130;5.584;2022-09-06T00:35:27;20.70;99.90
11963;DHT22;62678;52.130;5.584;2022-09-06T00:37:58;20.70;99.90
11963;DHT22;62678;52.130;5.584;2022-09-06T00:40:28;20.70;99.90
11963;DHT22;62678;52.130;5.584;2022-09-06T00:42:56;20.80;99.90
11963;DHT22;62678;52.130;5.584;2022-09-06T00:45:24;20.90;99.90
11963;DHT22;62678;52.130;5.584;2022-09-06T00:47:51;20.80;99.90
11963;DHT22;62678;52.130;5.584;2022-09-06T00:50:18;20.80;99.90
11963;DHT22;62678;52.130;5.584;2022-09-06T00:52:47;20.80;99.90
11963;DHT22;62678;52.130;5.584;2022-09-06T00:55:14;20.70;99.90
11963;DHT22;62678;52.130;5.584;2022-09-06T00:57:43;20.60;99.90
11963;DHT22;62678;52.130;5.584;2022-09-06T01:00:12;20.60;99.90
11963;DHT22;62678;52.130;5.584;2022-09-06T01:02:41;20.80;99.90
11963;DHT22;62678;52.130;5.584;2022-09-06T01:05:08;20.70;99.90
11963;DHT22;62678;52.130;5.584;2022-09-06T01:07:50;20.60;99.90
11963;DHT22;62678;52.130;5.584;2022-09-06T01:10:32;20.70;99.90
11963;DHT22;62678;52.130;5.584;2022-09-06T01:13:13;20.70;99.90
11963;DHT22;62678;52.130;5.584;2022-09-06T01:15:47;20.70;99.90
11963;DHT22;62678;52.130;5.584;2022-09-06T01:18:26;20.60;99.90
11963;DHT22;62678;52.130;5.584;2022-09-06T01:21:06;20.50;99.90
11963;DHT22;62678;52.130;5.584;2022-09-06T01:24:11;20.50;99.90
11963;DHT22;62678;52.130;5.584;2022-09-06T01:27:08;20.40;99.90
11963;DHT22;62678;52.130;5.584;2022-09-06T01:29:43;20.30;99.90
11963;DHT22;62678;52.130;5.584;2022-09-06T01:32:14;20.30;99.90
11963;DHT22;62678;52.130;5.584;2022-09-06T01:34:46;20.20;99.90
11963;DHT22;62678;52.130;5.584;2022-09-06T01:37:16;20.20;99.90
11963;DHT22;62678;52.130;5.584;2022-09-06T01:39:45;20.20;99.90
11963;DHT22;62678;52.130;5.584;2022-09-06T01:42:14;20.10;99.90
11963;DHT22;62678;52.130;5.584;2022-09-06T01:44:46;20.10;99.90
11963;DHT22;62678;52.130;5.584;2022-09-06T01:47:22;20.00;99.90
11963;DHT22;62678;52.130;5.584;2022-09-06T01:50:11;19.90;99.90
11963;DHT22;62678;52.130;5.584;2022-09-06T01:52:52;20.00;99.90
11963;DHT22;62678;52.130;5.584;2022-09-06T01:55:28;19.90;99.90
11963;DHT22;62678;52.130;5.584;2022-09-06T01:58:09;20.10;99.90
11963;DHT22;62678;52.130;5.584;2022-09-06T02:00:44;20.00;99.90
11963;DHT22;62678;52.130;5.584;2022-09-06T02:03:18;20.10;99.90
11963;DHT22;62678;52.130;5.584;2022-09-06T02:05:50;20.10;99.90
11963;DHT22;62678;52.130;5.584;2022-09-06T02:08:21;19.90;99.90
11963;DHT22;62678;52.130;5.584;2022-09-06T02:10:51;20.00;99.90
11963;DHT22;62678;52.130;5.584;2022-09-06T02:13:22;19.90;99.90
11963;DHT22;62678;52.130;5.584;2022-09-06T02:15:54;19.90;99.90
11963;DHT22;62678;52.130;5.584;2022-09-06T02:18:26;19.90;99.90
11963;DHT22;62678;52.130;5.584;2022-09-06T02:20:56;19.80;99.90
11963;DHT22;62678;52.130;5.584;2022-09-06T02:23:26;19.90;99.90
11963;DHT22;62678;52.130;5.584;2022-09-06T02:25:58;19.90;99.90
11963;DHT22;62678;52.130;5.584;2022-09-06T02:28:27;19.90;99.90
11963;DHT22;62678;52.130;5.584;2022-09-06T02:30:58;19.80;99.90
11963;DHT22;62678;52.130;5.584;2022-09-06T02:33:29;19.80;99.90
11963;DHT22;62678;52.130;5.584;2022-09-06T02:36:02;19.70;99.90
11963;DHT22;62678;52.130;5.584;2022-09-06T02:38:30;19.70;99.90
11963;DHT22;62678;52.130;5.584;2022-09-06T02:41:00;19.70;99.90
11963;DHT22;62678;52.130;5.584;2022-09-06T02:43:27;19.70;99.90
11963;DHT22;62678;52.130;5.584;2022-09-06T02:45:56;19.70;99.90
11963;DHT22;62678;52.130;5.584;2022-09-06T02:48:23;19.70;99.90
11963;DHT22;62678;52.130;5.584;2022-09-06T02:50:50;19.70;99.90
11963;DHT22;62678;52.130;5.584;2022-09-06T02:53:17;19.70;99.90
11963;DHT22;62678;52.130;5.584;2022-09-06T02:55:45;19.70;99.90
11963;DHT22;62678;52.130;5.584;2022-09-06T02:58:13;19.70;99.90
11963;DHT22;62678;52.130;5.584;2022-09-06T03:00:41;19.70;99.90
11963;DHT22;62678;52.130;5.584;2022-09-06T03:03:09;19.60;99.90
11963;DHT22;62678;52.130;5.584;2022-09-06T03:05:36;19.60;99.90
11963;DHT22;62678;52.130;5.584;2022-09-06T03:08:03;19.70;99.90
11963;DHT22;62678;52.130;5.584;2022-09-06T03:10:30;19.60;99.90
11963;DHT22;62678;52.130;5.584;2022-09-06T03:12:57;19.50;99.90
11963;DHT22;62678;52.130;5.584;2022-09-06T03:15:23;19.50;99.90
11963;DHT22;62678;52.130;5.584;2022-09-06T03:17:50;19.40;99.90
11963;DHT22;62678;52.130;5.584;2022-09-06T03:20:18;19.50;99.90
11963;DHT22;62678;52.130;5.584;2022-09-06T03:22:45;19.50;99.90
11963;DHT22;62678;52.130;5.584;2022-09-06T03:25:12;19.50;99.90
11963;DHT22;62678;52.130;5.584;2022-09-06T03:27:39;19.40;99.90
11963;DHT22;62678;52.130;5.584;2022-09-06T03:30:07;19.40;99.90
11963;DHT22;62678;52.130;5.584;2022-09-06T03:32:33;19.40;99.90
11963;DHT22;62678;52.130;5.584;2022-09-06T03:35:00;19.40;99.90
11963;DHT22;62678;52.130;5.584;2022-09-06T03:37:29;19.30;99.90
11963;DHT22;62678;52.130;5.584;2022-09-06T03:39:55;19.40;99.90
11963;DHT22;62678;52.130;5.584;2022-09-06T03:42:22;19.40;99.90
11963;DHT22;62678;52.130;5.584;2022-09-06T03:44:51;19.50;99.90
11963;DHT22;62678;52.130;5.584;2022-09-06T03:47:17;19.40;99.90
11963;DHT22;62678;52.130;5.584;2022-09-06T03:49:44;19.30;99.90
11963;DHT22;62678;52.130;5.584;2022-09-06T03:52:11;19.30;99.90
11963;DHT22;62678;52.130;5.584;2022-09-06T03:54:39;19.20;99.90
11963;DHT22;62678;52.130;5.584;2022-09-06T03:57:06;19.10;99.90
11963;DHT22;62678;52.130;5.584;2022-09-06T03:59:32;19.10;99.90
11963;DHT22;62678;52.130;5.584;2022-09-06T04:02:00;19.10;99.90
11963;DHT22;62678;52.130;5.584;2022-09-06T04:04:26;19.10;99.90
11963;DHT22;62678;52.130;5.584;2022-09-06T04:06:53;19.10;99.90
11963;DHT22;62678;52.130;5.584;2022-09-06T04:09:20;19.10;99.90
11963;DHT22;62678;52.130;5.584;2022-09-06T04:11:49;19.20;99.90
11963;DHT22;62678;52.130;5.584;2022-09-06T04:14:16;19.20;99.90
11963;DHT22;62678;52.130;5.584;2022-09-06T04:16:44;19.10;99.90
11963;DHT22;62678;52.130;5.584;2022-09-06T04:19:11;19.20;99.90
11963;DHT22;62678;52.130;5.584;2022-09-06T04:21:38;19.20;99.90
11963;DHT22;62678;52.130;5.584;2022-09-06T04:24:05;19.20;99.90
11963;DHT22;62678;52.130;5.584;2022-09-06T04:26:32;19.20;99.90
11963;DHT22;62678;52.130;5.584;2022-09-06T04:29:00;19.10;99.90
11963;DHT22;62678;52.130;5.584;2022-09-06T04:31:27;19.20;99.90
11963;DHT22;62678;52.130;5.584;2022-09-06T04:33:54;19.20;99.90
11963;DHT22;62678;52.130;5.584;2022-09-06T04:36:20;19.30;99.90
11963;DHT22;62678;52.130;5.584;2022-09-06T04:38:47;19.30;99.90
11963;DHT22;62678;52.130;5.584;2022-09-06T04:41:15;19.30;99.90
11963;DHT22;62678;52.130;5.584;2022-09-06T04:43:43;19.30;99.90
11963;DHT22;62678;52.130;5.584;2022-09-06T04:46:18;19.30;99.90
11963;DHT22;62678;52.130;5.584;2022-09-06T04:48:45;19.50;99.90
11963;DHT22;62678;52.130;5.584;2022-09-06T04:51:11;19.30;99.90
11963;DHT22;62678;52.130;5.584;2022-09-06T04:53:38;19.30;99.90
11963;DHT22;62678;52.130;5.584;2022-09-06T04:56:05;19.20;99.90
11963;DHT22;62678;52.130;5.584;2022-09-06T04:58:32;19.20;99.90
11963;DHT22;62678;52.130;5.584;2022-09-06T05:00:58;19.30;99.90
11963;DHT22;62678;52.130;5.584;2022-09-06T05:03:27;19.30;99.90
11963;DHT22;62678;52.130;5.584;2022-09-06T05:06:03;19.30;99.90
11963;DHT22;62678;52.130;5.584;2022-09-06T05:08:30;19.30;99.90
11963;DHT22;62678;52.130;5.584;2022-09-06T05:10:57;19.30;99.90
11963;DHT22;62678;52.130;5.584;2022-09-06T05:13:23;19.20;99.90
11963;DHT22;62678;52.130;5.584;2022-09-06T05:15:50;19.10;99.90
11963;DHT22;62678;52.130;5.584;2022-09-06T05:18:17;19.20;99.90
11963;DHT22;62678;52.130;5.584;2022-09-06T05:20:50;19.10;99.90
11963;DHT22;62678;52.130;5.584;2022-09-06T05:23:17;19.20;99.90
11963;DHT22;62678;52.130;5.584;2022-09-06T05:25:44;19.10;99.90
11963;DHT22;62678;52.130;5.584;2022-09-06T05:28:11;19.00;99.90
11963;DHT22;62678;52.130;5.584;2022-09-06T05:30:38;19.10;99.90
11963;DHT22;62678;52.130;5.584;2022-09-06T05:33:06;19.10;99.90
11963;DHT22;62678;52.130;5.584;2022-09-06T05:35:33;19.00;99.90
11963;DHT22;62678;52.130;5.584;2022-09-06T05:38:01;19.00;99.90
11963;DHT22;62678;52.130;5.584;2022-09-06T05:40:28;19.00;99.90
11963;DHT22;62678;52.130;5.584;2022-09-06T05:42:54;19.00;99.90
11963;DHT22;62678;52.130;5.584;2022-09-06T05:45:21;19.00;99.90
11963;DHT22;62678;52.130;5.584;2022-09-06T05:47:48;19.00;99.90
11963;DHT22;62678;52.130;5.584;2022-09-06T05:50:15;19.00;99.90
11963;DHT22;62678;52.130;5.584;2022-09-06T05:52:42;19.00;99.90
11963;DHT22;62678;52.130;5.584;2022-09-06T05:55:10;19.00;99.90
11963;DHT22;62678;52.130;5.584;2022-09-06T05:57:37;19.00;99.90
11963;DHT22;62678;52.130;5.584;2022-09-06T06:00:05;19.00;99.90
11963;DHT22;62678;52.130;5.584;2022-09-06T06:02:32;19.00;99.90
11963;DHT22;62678;52.130;5.584;2022-09-06T06:04:59;19.10;99.90
11963;DHT22;62678;52.130;5.584;2022-09-06T06:07:26;19.10;99.90
11963;DHT22;62678;52.130;5.584;2022-09-06T06:09:53;19.10;99.90
11963;DHT22;62678;52.130;5.584;2022-09-06T06:12:21;19.00;99.90
11963;DHT22;62678;52.130;5.584;2022-09-06T06:14:48;19.00;99.90
11963;DHT22;62678;52.130;5.584;2022-09-06T06:17:14;19.00;99.90
11963;DHT22;62678;52.130;5.584;2022-09-06T06:19:41;19.10;99.90
11963;DHT22;62678;52.130;5.584;2022-09-06T06:22:08;19.10;99.90
11963;DHT22;62678;52.130;5.584;2022-09-06T06:24:35;19.10;99.90
11963;DHT22;62678;52.130;5.584;2022-09-06T06:27:01;19.10;99.90
11963;DHT22;62678;52.130;5.584;2022-09-06T06:29:30;19.10;99.90
11963;DHT22;62678;52.130;5.584;2022-09-06T06:31:56;19.10;99.90
11963;DHT22;62678;52.130;5.584;2022-09-06T06:34:23;19.20;99.90
11963;DHT22;62678;52.130;5.584;2022-09-06T06:36:50;19.30;99.90
11963;DHT22;62678;52.130;5.584;2022-09-06T06:39:17;19.30;99.90
11963;DHT22;62678;52.130;5.584;2022-09-06T06:41:43;19.40;99.90
11963;DHT22;62678;52.130;5.584;2022-09-06T06:44:10;19.40;99.90
11963;DHT22;62678;52.130;5.584;2022-09-06T06:46:38;19.40;99.90
11963;DHT22;62678;52.130;5.584;2022-09-06T06:49:06;19.40;99.90
11963;DHT22;62678;52.130;5.584;2022-09-06T06:51:34;19.50;99.90
11963;DHT22;62678;52.130;5.584;2022-09-06T06:54:02;19.50;99.90
11963;DHT22;62678;52.130;5.584;2022-09-06T06:56:31;19.50;99.90
11963;DHT22;62678;52.130;5.584;2022-09-06T06:59:00;19.60;99.90
11963;DHT22;62678;52.130;5.584;2022-09-06T07:01:28;19.70;99.90
11963;DHT22;62678;52.130;5.584;2022-09-06T07:03:57;19.80;99.90
11963;DHT22;62678;52.130;5.584;2022-09-06T07:06:24;19.90;99.90
11963;DHT22;62678;52.130;5.584;2022-09-06T07:08:55;20.00;99.90
11963;DHT22;62678;52.130;5.584;2022-09-06T07:11:22;20.10;99.90
11963;DHT22;62678;52.130;5.584;2022-09-06T07:13:49;20.10;99.90
11963;DHT22;62678;52.130;5.584;2022-09-06T07:16:18;20.20;99.90
11963;DHT22;62678;52.130;5.584;2022-09-06T07:18:45;20.40;99.90
11963;DHT22;62678;52.130;5.584;2022-09-06T07:21:15;20.50;99.90
11963;DHT22;62678;52.130;5.584;2022-09-06T07:23:43;20.60;99.90
11963;DHT22;62678;52.130;5.584;2022-09-06T07:26:14;20.70;99.90
11963;DHT22;62678;52.130;5.584;2022-09-06T07:28:41;20.70;99.90
11963;DHT22;62678;52.130;5.584;2022-09-06T07:31:08;20.80;99.90
11963;DHT22;62678;52.130;5.584;2022-09-06T07:33:35;20.90;99.90
11963;DHT22;62678;52.130;5.584;2022-09-06T07:36:04;20.80;99.90
11963;DHT22;62678;52.130;5.584;2022-09-06T07:44:43;21.10;99.90
11963;DHT22;62678;52.130;5.584;2022-09-06T07:47:22;21.20;99.90
11963;DHT22;62678;52.130;5.584;2022-09-06T07:49:50;21.30;99.90
11963;DHT22;62678;52.130;5.584;2022-09-06T07:52:19;21.30;99.90
11963;DHT22;62678;52.130;5.584;2022-09-06T07:54:54;21.40;99.90
11963;DHT22;62678;52.130;5.584;2022-09-06T07:57:21;21.40;99.90
11963;DHT22;62678;52.130;5.584;2022-09-06T07:59:49;21.40;99.90
11963;DHT22;62678;52.130;5.584;2022-09-06T08:02:16;21.50;99.90
11963;DHT22;62678;52.130;5.584;2022-09-06T08:04:44;21.60;99.90
11963;DHT22;62678;52.130;5.584;2022-09-06T08:07:10;21.60;99.90
11963;DHT22;62678;52.130;5.584;2022-09-06T08:09:37;21.80;99.90
11963;DHT22;62678;52.130;5.584;2022-09-06T08:12:05;21.90;99.90
11963;DHT22;62678;52.130;5.584;2022-09-06T08:14:33;21.90;99.90
11963;DHT22;62678;52.130;5.584;2022-09-06T08:17:01;22.10;99.90
11963;DHT22;62678;52.130;5.584;2022-09-06T08:19:29;22.20;99.90
11963;DHT22;62678;52.130;5.584;2022-09-06T08:21:56;22.30;99.90
11963;DHT22;62678;52.130;5.584;2022-09-06T08:24:23;22.30;99.90
11963;DHT22;62678;52.130;5.584;2022-09-06T08:26:50;22.40;99.90
11963;DHT22;62678;52.130;5.584;2022-09-06T08:29:16;22.60;99.90
11963;DHT22;62678;52.130;5.584;2022-09-06T08:31:44;22.60;99.90
11963;DHT22;62678;52.130;5.584;2022-09-06T08:34:13;22.60;99.90
11963;DHT22;62678;52.130;5.584;2022-09-06T08:36:41;22.70;99.90
11963;DHT22;62678;52.130;5.584;2022-09-06T08:39:09;22.70;99.90
11963;DHT22;62678;52.130;5.584;2022-09-06T08:41:44;22.80;99.90
11963;DHT22;62678;52.130;5.584;2022-09-06T08:44:14;23.00;99.90
11963;DHT22;62678;52.130;5.584;2022-09-06T08:46:49;23.00;99.90
11963;DHT22;62678;52.130;5.584;2022-09-06T08:49:20;23.00;99.90
11963;DHT22;62678;52.130;5.584;2022-09-06T08:52:24;23.20;99.90
11963;DHT22;62678;52.130;5.584;2022-09-06T08:54:59;23.30;99.90
11963;DHT22;62678;52.130;5.584;2022-09-06T08:57:49;23.30;99.90
11963;DHT22;62678;52.130;5.584;2022-09-06T09:00:22;23.30;99.90
11963;DHT22;62678;52.130;5.584;2022-09-06T09:02:51;23.40;99.90
11963;DHT22;62678;52.130;5.584;2022-09-06T09:05:26;23.50;99.90
11963;DHT22;62678;52.130;5.584;2022-09-06T09:08:02;23.50;99.90
11963;DHT22;62678;52.130;5.584;2022-09-06T09:10:39;23.60;99.90
11963;DHT22;62678;52.130;5.584;2022-09-06T09:13:11;23.70;99.90
11963;DHT22;62678;52.130;5.584;2022-09-06T09:15:41;24.00;99.90
11963;DHT22;62678;52.130;5.584;2022-09-06T09:18:08;24.20;99.90
11963;DHT22;62678;52.130;5.584;2022-09-06T09:20:38;24.20;99.90
11963;DHT22;62678;52.130;5.584;2022-09-06T09:23:04;24.30;99.90
11963;DHT22;62678;52.130;5.584;2022-09-06T09:25:32;24.30;99.90
11963;DHT22;62678;52.130;5.584;2022-09-06T09:28:00;24.20;99.90
11963;DHT22;62678;52.130;5.584;2022-09-06T09:30:44;24.30;99.90
11963;DHT22;62678;52.130;5.584;2022-09-06T09:33:25;24.40;99.90
11963;DHT22;62678;52.130;5.584;2022-09-06T09:35:55;24.50;99.90
11963;DHT22;62678;52.130;5.584;2022-09-06T09:38:24;24.60;99.90
11963;DHT22;62678;52.130;5.584;2022-09-06T09:40:53;24.50;99.90
11963;DHT22;62678;52.130;5.584;2022-09-06T09:43:22;24.60;99.90
11963;DHT22;62678;52.130;5.584;2022-09-06T09:46:09;24.70;99.90
11963;DHT22;62678;52.130;5.584;2022-09-06T09:48:38;24.80;99.90
11963;DHT22;62678;52.130;5.584;2022-09-06T09:51:21;24.90;99.90
11963;DHT22;62678;52.130;5.584;2022-09-06T09:53:53;24.70;99.90
11963;DHT22;62678;52.130;5.584;2022-09-06T09:56:32;24.80;99.90
11963;DHT22;62678;52.130;5.584;2022-09-06T09:59:00;24.90;99.90
11963;DHT22;62678;52.130;5.584;2022-09-06T10:01:29;25.10;99.90
11963;DHT22;62678;52.130;5.584;2022-09-06T10:04:03;25.00;99.90
11963;DHT22;62678;52.130;5.584;2022-09-06T10:06:32;25.00;99.90
11963;DHT22;62678;52.130;5.584;2022-09-06T10:09:12;24.90;99.90
11963;DHT22;62678;52.130;5.584;2022-09-06T10:11:48;24.90;99.90
11963;DHT22;62678;52.130;5.584;2022-09-06T10:14:27;25.20;99.90
11963;DHT22;62678;52.130;5.584;2022-09-06T10:16:55;25.40;99.90
11963;DHT22;62678;52.130;5.584;2022-09-06T10:19:31;25.20;99.90
11963;DHT22;62678;52.130;5.584;2022-09-06T10:22:13;25.40;99.90
11963;DHT22;62678;52.130;5.584;2022-09-06T10:27:39;25.50;99.90
11963;DHT22;62678;52.130;5.584;2022-09-06T10:30:09;25.50;99.90
11963;DHT22;62678;52.130;5.584;2022-09-06T10:32:41;25.60;99.90
11963;DHT22;62678;52.130;5.584;2022-09-06T10:35:13;25.80;99.90
11963;DHT22;62678;52.130;5.584;2022-09-06T10:37:51;25.90;99.90
11963;DHT22;62678;52.130;5.584;2022-09-06T10:40:29;26.20;99.90
11963;DHT22;62678;52.130;5.584;2022-09-06T10:42:59;26.20;99.90
11963;DHT22;62678;52.130;5.584;2022-09-06T10:45:44;26.20;99.90
11963;DHT22;62678;52.130;5.584;2022-09-06T10:48:17;26.40;99.90
11963;DHT22;62678;52.130;5.584;2022-09-06T10:50:50;26.50;99.90
11963;DHT22;62678;52.130;5.584;2022-09-06T10:53:42;26.60;99.90
11963;DHT22;62678;52.130;5.584;2022-09-06T10:56:16;26.90;99.90
11963;DHT22;62678;52.130;5.584;2022-09-06T10:58:48;26.60;99.90
11963;DHT22;62678;52.130;5.584;2022-09-06T11:01:29;26.60;99.90
11963;DHT22;62678;52.130;5.584;2022-09-06T11:03:59;26.80;99.90
11963;DHT22;62678;52.130;5.584;2022-09-06T11:06:30;26.60;99.90
11963;DHT22;62678;52.130;5.584;2022-09-06T11:09:05;26.60;99.90
11963;DHT22;62678;52.130;5.584;2022-09-06T11:11:39;26.60;99.90
11963;DHT22;62678;52.130;5.584;2022-09-06T11:14:11;26.70;99.90
11963;DHT22;62678;52.130;5.584;2022-09-06T11:16:43;26.70;99.90
11963;DHT22;62678;52.130;5.584;2022-09-06T11:19:15;26.80;99.90
11963;DHT22;62678;52.130;5.584;2022-09-06T11:22:08;26.80;99.90
11963;DHT22;62678;52.130;5.584;2022-09-06T11:25:05;26.80;99.90
11963;DHT22;62678;52.130;5.584;2022-09-06T11:27:39;26.90;99.90
11963;DHT22;62678;52.130;5.584;2022-09-06T11:30:12;27.00;99.90
11963;DHT22;62678;52.130;5.584;2022-09-06T11:32:41;27.10;99.90
11963;DHT22;62678;52.130;5.584;2022-09-06T11:35:20;26.90;99.90
11963;DHT22;62678;52.130;5.584;2022-09-06T11:37:57;26.90;99.90
11963;DHT22;62678;52.130;5.584;2022-09-06T11:40:28;26.80;99.90
11963;DHT22;62678;52.130;5.584;2022-09-06T11:43:42;27.00;99.90
11963;DHT22;62678;52.130;5.584;2022-09-06T11:46:09;27.20;99.90
11963;DHT22;62678;52.130;5.584;2022-09-06T11:48:59;27.30;99.90
11963;DHT22;62678;52.130;5.584;2022-09-06T11:51:34;27.30;99.90
11963;DHT22;62678;52.130;5.584;2022-09-06T11:54:20;27.10;99.90
11963;DHT22;62678;52.130;5.584;2022-09-06T11:56:54;27.30;99.90
11963;DHT22;62678;52.130;5.584;2022-09-06T11:59:30;27.30;99.90
11963;DHT22;62678;52.130;5.584;2022-09-06T12:02:00;27.30;99.90
11963;DHT22;62678;52.130;5.584;2022-09-06T12:07:32;27.00;99.90
11963;DHT22;62678;52.130;5.584;2022-09-06T12:10:01;26.90;99.90
11963;DHT22;62678;52.130;5.584;2022-09-06T12:12:41;26.90;99.90
11963;DHT22;62678;52.130;5.584;2022-09-06T12:15:27;27.30;99.90
11963;DHT22;62678;52.130;5.584;2022-09-06T12:17:54;27.40;99.90
11963;DHT22;62678;52.130;5.584;2022-09-06T12:23:40;27.30;99.90
11963;DHT22;62678;52.130;5.584;2022-09-06T12:26:08;27.20;99.90
11963;DHT22;62678;52.130;5.584;2022-09-06T12:28:45;27.30;99.90
11963;DHT22;62678;52.130;5.584;2022-09-06T12:31:38;27.30;99.90
11963;DHT22;62678;52.130;5.584;2022-09-06T12:34:11;27.30;99.90
11963;DHT22;62678;52.130;5.584;2022-09-06T12:36:48;27.10;99.90
11963;DHT22;62678;52.130;5.584;2022-09-06T12:39:15;27.30;99.90
11963;DHT22;62678;52.130;5.584;2022-09-06T12:41:44;27.50;99.90
11963;DHT22;62678;52.130;5.584;2022-09-06T12:44:15;27.50;99.90
11963;DHT22;62678;52.130;5.584;2022-09-06T12:46:47;27.40;99.90
11963;DHT22;62678;52.130;5.584;2022-09-06T12:49:17;27.40;99.90
11963;DHT22;62678;52.130;5.584;2022-09-06T12:51:45;27.40;99.90
11963;DHT22;62678;52.130;5.584;2022-09-06T12:54:18;27.30;99.90
11963;DHT22;62678;52.130;5.584;2022-09-06T12:56:46;27.40;99.90
11963;DHT22;62678;52.130;5.584;2022-09-06T12:59:16;27.60;99.90
11963;DHT22;62678;52.130;5.584;2022-09-06T13:01:51;27.60;99.90
11963;DHT22;62678;52.130;5.584;2022-09-06T13:04:26;27.30;99.90
11963;DHT22;62678;52.130;5.584;2022-09-06T13:06:55;27.30;99.90
11963;DHT22;62678;52.130;5.584;2022-09-06T13:09:23;27.30;99.90
11963;DHT22;62678;52.130;5.584;2022-09-06T13:11:54;27.50;99.90
11963;DHT22;62678;52.130;5.584;2022-09-06T13:14:25;27.80;99.90
11963;DHT22;62678;52.130;5.584;2022-09-06T13:16:53;28.00;99.90
11963;DHT22;62678;52.130;5.584;2022-09-06T13:19:29;27.90;99.90
11963;DHT22;62678;52.130;5.584;2022-09-06T13:21:57;27.70;99.90
11963;DHT22;62678;52.130;5.584;2022-09-06T13:24:25;27.70;99.90
11963;DHT22;62678;52.130;5.584;2022-09-06T13:26:53;27.60;99.90
11963;DHT22;62678;52.130;5.584;2022-09-06T13:29:29;27.50;99.90
11963;DHT22;62678;52.130;5.584;2022-09-06T13:31:57;27.70;99.90
11963;DHT22;62678;52.130;5.584;2022-09-06T13:34:25;27.80;99.90
11963;DHT22;62678;52.130;5.584;2022-09-06T13:36:54;27.90;99.90
11963;DHT22;62678;52.130;5.584;2022-09-06T13:39:30;28.10;99.90
11963;DHT22;62678;52.130;5.584;2022-09-06T13:42:03;28.20;99.90
11963;DHT22;62678;52.130;5.584;2022-09-06T13:44:34;28.20;99.90
11963;DHT22;62678;52.130;5.584;2022-09-06T13:47:02;28.20;99.90
11963;DHT22;62678;52.130;5.584;2022-09-06T13:49:29;28.30;99.90
11963;DHT22;62678;52.130;5.584;2022-09-06T13:52:00;28.40;99.90
11963;DHT22;62678;52.130;5.584;2022-09-06T13:54:27;28.60;99.90
11963;DHT22;62678;52.130;5.584;2022-09-06T13:56:54;28.60;99.90
11963;DHT22;62678;52.130;5.584;2022-09-06T13:59:22;28.40;99.90
11963;DHT22;62678;52.130;5.584;2022-09-06T14:01:58;28.20;99.90
11963;DHT22;62678;52.130;5.584;2022-09-06T14:04:26;28.40;99.90
11963;DHT22;62678;52.130;5.584;2022-09-06T14:06:53;28.20;99.90
11963;DHT22;62678;52.130;5.584;2022-09-06T14:09:20;28.40;99.90
11963;DHT22;62678;52.130;5.584;2022-09-06T14:11:47;28.50;99.90
11963;DHT22;62678;52.130;5.584;2022-09-06T14:14:14;28.80;99.90
11963;DHT22;62678;52.130;5.584;2022-09-06T14:16:42;28.90;99.90
11963;DHT22;62678;52.130;5.584;2022-09-06T14:19:10;29.10;99.90
11963;DHT22;62678;52.130;5.584;2022-09-06T14:21:38;29.00;99.90
11963;DHT22;62678;52.130;5.584;2022-09-06T14:24:05;29.20;99.90
11963;DHT22;62678;52.130;5.584;2022-09-06T14:26:34;29.20;99.90
11963;DHT22;62678;52.130;5.584;2022-09-06T14:29:01;29.20;99.90
11963;DHT22;62678;52.130;5.584;2022-09-06T14:31:28;29.10;99.90
11963;DHT22;62678;52.130;5.584;2022-09-06T14:33:56;29.10;99.90
11963;DHT22;62678;52.130;5.584;2022-09-06T14:36:27;28.70;99.90
11963;DHT22;62678;52.130;5.584;2022-09-06T14:38:56;28.70;99.90
11963;DHT22;62678;52.130;5.584;2022-09-06T14:41:23;28.90;99.90
11963;DHT22;62678;52.130;5.584;2022-09-06T14:43:51;29.10;99.90
11963;DHT22;62678;52.130;5.584;2022-09-06T14:46:20;29.10;99.90
11963;DHT22;62678;52.130;5.584;2022-09-06T14:48:48;28.80;99.90
11963;DHT22;62678;52.130;5.584;2022-09-06T14:51:21;28.50;99.90
11963;DHT22;62678;52.130;5.584;2022-09-06T14:53:52;28.40;99.90
11963;DHT22;62678;52.130;5.584;2022-09-06T14:56:20;28.50;99.90
11963;DHT22;62678;52.130;5.584;2022-09-06T14:58:47;28.80;99.90
11963;DHT22;62678;52.130;5.584;2022-09-06T15:01:16;28.90;99.90
11963;DHT22;62678;52.130;5.584;2022-09-06T15:03:44;28.90;99.90
11963;DHT22;62678;52.130;5.584;2022-09-06T15:06:15;29.30;99.90
11963;DHT22;62678;52.130;5.584;2022-09-06T15:08:42;29.70;99.90
11963;DHT22;62678;52.130;5.584;2022-09-06T15:11:11;30.30;99.90
11963;DHT22;62678;52.130;5.584;2022-09-06T15:13:38;30.80;99.90
11963;DHT22;62678;52.130;5.584;2022-09-06T15:16:07;31.00;99.90
11963;DHT22;62678;52.130;5.584;2022-09-06T15:18:34;31.20;99.90
11963;DHT22;62678;52.130;5.584;2022-09-06T15:21:08;31.40;99.90
11963;DHT22;62678;52.130;5.584;2022-09-06T15:23:35;31.40;99.90
11963;DHT22;62678;52.130;5.584;2022-09-06T15:26:02;31.20;99.90
11963;DHT22;62678;52.130;5.584;2022-09-06T15:28:32;31.50;99.90
11963;DHT22;62678;52.130;5.584;2022-09-06T15:30:59;31.90;99.90
11963;DHT22;62678;52.130;5.584;2022-09-06T15:33:28;32.20;99.90
11963;DHT22;62678;52.130;5.584;2022-09-06T15:35:55;31.90;99.90
11963;DHT22;62678;52.130;5.584;2022-09-06T15:38:22;31.60;99.90
11963;DHT22;62678;52.130;5.584;2022-09-06T15:40:49;31.50;99.90
11963;DHT22;62678;52.130;5.584;2022-09-06T15:43:16;31.40;99.90
11963;DHT22;62678;52.130;5.584;2022-09-06T15:45:47;31.20;99.90
11963;DHT22;62678;52.130;5.584;2022-09-06T15:48:15;31.30;99.90
11963;DHT22;62678;52.130;5.584;2022-09-06T15:50:42;31.70;99.90
11963;DHT22;62678;52.130;5.584;2022-09-06T15:53:09;32.00;99.90
11963;DHT22;62678;52.130;5.584;2022-09-06T15:55:36;32.00;99.90
11963;DHT22;62678;52.130;5.584;2022-09-06T15:58:21;32.10;99.90
11963;DHT22;62678;52.130;5.584;2022-09-06T16:01:03;31.80;99.90
11963;DHT22;62678;52.130;5.584;2022-09-06T16:03:31;31.90;99.90
11963;DHT22;62678;52.130;5.584;2022-09-06T16:06:01;32.10;99.90